createdAt,value
2023-01-15T10:58:11.180Z,99779.38
2023-01-15T11:00:43.984Z,99778.09
2023-01-15T11:03:22.441Z,99779.94
2023-01-15T11:06:07.221Z,99771.44
2023-01-15T11:09:10.384Z,99787.31
2023-01-15T11:19:50.872Z,99777.97
2023-01-15T11:22:46.084Z,99781.66
2023-01-15T11:25:57.573Z,99781.81
2023-01-15T11:31:44.722Z,99758.50
2023-01-15T11:34:22.159Z,99763.31
2023-01-15T11:36:52.441Z,99768.97
2023-01-15T11:39:31.464Z,99769.94
2023-01-15T11:42:21.865Z,99770.81
2023-01-15T11:45:15.492Z,99750.63
2023-01-15T11:48:16.543Z,99752.59
2023-01-15T11:50:57.339Z,99737.97
2023-01-15T11:53:29.691Z,99750.38
2023-01-15T11:56:13.531Z,99758.31
2023-01-15T11:58:52.662Z,99751.25
2023-01-15T12:01:30.233Z,99749.09
2023-01-15T12:04:08.886Z,99747.53
2023-01-15T12:07:47.946Z,99762.00
2023-01-15T12:15:03.731Z,99756.50
2023-01-15T12:18:21.488Z,99783.63
2023-01-15T12:21:08.553Z,99775.97
2023-01-15T12:24:08.244Z,99772.00
2023-01-15T12:27:01.011Z,99767.47
2023-01-15T12:33:56.553Z,99765.91
2023-01-15T12:41:05.162Z,99784.34
2023-01-15T12:44:13.773Z,99785.75
2023-01-15T12:47:33.484Z,99787.63
2023-01-15T12:50:36.389Z,99774.84
2023-01-15T12:53:16.905Z,99767.31
2023-01-15T12:55:56.806Z,99755.25
2023-01-15T12:58:43.272Z,99767.75
2023-01-15T13:01:19.264Z,99759.66
2023-01-15T13:04:07.364Z,99758.66
2023-01-15T13:07:09.606Z,99764.19
2023-01-15T13:11:44.192Z,99754.38
2023-01-15T13:13:37.078Z,99768.59
2023-01-15T13:16:27.413Z,99779.94
2023-01-15T13:19:31.386Z,99754.94
2023-01-15T13:22:08.651Z,99755.97
2023-01-15T13:25:16.919Z,99774.53
2023-01-15T13:28:04.668Z,99768.88
2023-01-15T13:34:27.468Z,99772.97
2023-01-15T13:41:01.867Z,99775.09
2023-01-15T13:44:04.328Z,99787.28
2023-01-15T13:46:42.156Z,99772.22
2023-01-15T13:50:02.057Z,99785.03
2023-01-15T13:55:46.032Z,99776.22
2023-01-15T13:58:31.394Z,99782.16
2023-01-15T14:01:37.528Z,99791.66
2023-01-15T14:04:34.358Z,99790.97
2023-01-15T14:07:56.354Z,99815.66
2023-01-15T14:11:00.272Z,99819.63
2023-01-15T14:13:52.419Z,99819.38
2023-01-15T14:16:58.658Z,99814.69
2023-01-15T14:20:07.939Z,99814.41
2023-01-15T14:23:45.734Z,99823.63
2023-01-15T14:27:16.371Z,99820.66
2023-01-15T14:37:54.730Z,99822.88
2023-01-15T14:41:51.063Z,99838.38
2023-01-15T14:45:06.492Z,99827.69
2023-01-15T14:54:59.446Z,99833.13
2023-01-15T15:05:19.653Z,99829.22
2023-01-15T15:15:57.405Z,99833.63
2023-01-15T15:18:36.754Z,99831.50
2023-01-15T15:21:11.680Z,99837.16
2023-01-15T15:23:45.012Z,99829.63
2023-01-15T15:26:47.634Z,99859.31
2023-01-15T15:29:44.344Z,99846.66
2023-01-15T15:32:24.509Z,99862.72
2023-01-15T15:35:07.995Z,99844.69
2023-01-15T15:37:50.288Z,99863.66
2023-01-15T15:40:21.133Z,99854.25
2023-01-15T15:43:17.356Z,99850.16
2023-01-15T15:46:10.800Z,99851.47
2023-01-15T15:48:47.897Z,99859.78
2023-01-15T15:51:29.429Z,99885.47
2023-01-15T15:54:21.942Z,99871.97
2023-01-15T15:56:54.452Z,99866.00
2023-01-15T15:59:30.662Z,99878.94
2023-01-15T16:02:02.275Z,99858.63
2023-01-15T16:04:30.603Z,99866.16
2023-01-15T16:06:58.776Z,99872.13
2023-01-15T16:09:28.604Z,99879.22
2023-01-15T16:12:07.444Z,99882.06
2023-01-15T16:14:37.771Z,99875.22
2023-01-15T16:17:06.257Z,99893.44
2023-01-15T16:19:37.268Z,99891.13
2023-01-15T16:22:08.452Z,99877.50
2023-01-15T16:24:41.227Z,99875.63
2023-01-15T16:27:17.149Z,99890.69
2023-01-15T16:29:51.282Z,99870.50
2023-01-15T16:32:49.823Z,99874.16
2023-01-15T16:38:24.654Z,99877.72
2023-01-15T16:40:59.761Z,99895.91
2023-01-15T16:43:32.083Z,99886.66
2023-01-15T16:46:10.135Z,99884.50
2023-01-15T16:48:47.203Z,99885.34
2023-01-15T16:51:44.788Z,99881.09
2023-01-15T16:54:49.626Z,99886.22
2023-01-15T16:57:38.242Z,99901.25
2023-01-15T17:00:31.410Z,99883.63
2023-01-15T17:03:06.786Z,99880.25
2023-01-15T17:05:46.465Z,99890.28
2023-01-15T17:08:28.246Z,99880.22
2023-01-15T17:11:02.841Z,99893.78
2023-01-15T17:13:49.137Z,99885.59
2023-01-15T17:16:38.727Z,99884.72
2023-01-15T17:19:09.439Z,99894.38
2023-01-15T17:21:40.455Z,99891.09
2023-01-15T17:24:15.201Z,99905.69
2023-01-15T17:26:48.612Z,99890.50
2023-01-15T17:29:21.645Z,99902.53
2023-01-15T17:31:50.201Z,99902.00
2023-01-15T17:34:28.207Z,99914.50
2023-01-15T17:36:58.655Z,99899.72
2023-01-15T17:39:29.968Z,99897.69
2023-01-15T17:42:17.818Z,99897.69
2023-01-15T17:44:49.869Z,99893.44
2023-01-15T17:47:18.247Z,99897.25
2023-01-15T17:50:00.662Z,99899.34
2023-01-15T17:52:34.519Z,99897.38
2023-01-15T17:55:22.047Z,99891.13
2023-01-15T17:58:14.364Z,99888.44
2023-01-15T18:01:04.430Z,99888.19
2023-01-15T18:04:01.044Z,99887.31
2023-01-15T18:06:30.258Z,99904.34
2023-01-15T18:09:09.561Z,99889.94
2023-01-15T18:11:38.580Z,99883.13
2023-01-15T18:14:10.433Z,99877.31
2023-01-15T18:16:41.293Z,99884.50
2023-01-15T18:19:09.785Z,99892.19
2023-01-15T18:22:11.001Z,99898.84
2023-01-15T18:24:42.061Z,99881.13
2023-01-15T18:27:10.548Z,99876.56
2023-01-15T18:29:54.279Z,99869.47
2023-01-15T18:32:25.067Z,99880.25
2023-01-15T18:34:53.337Z,99854.97
2023-01-15T18:37:22.074Z,99858.78
2023-01-15T18:39:50.292Z,99868.28
2023-01-15T18:42:35.481Z,99869.31
2023-01-15T18:45:20.782Z,99872.69
2023-01-15T18:47:50.523Z,99870.16
2023-01-15T18:50:18.817Z,99864.31
2023-01-15T18:52:52.989Z,99863.97
2023-01-15T18:55:28.788Z,99857.41
2023-01-15T19:18:30.255Z,99855.06
2023-01-15T19:20:58.608Z,99858.97
2023-01-15T19:23:27.099Z,99840.41
2023-01-15T19:25:55.341Z,99839.91
2023-01-15T19:28:29.666Z,99844.13
2023-01-15T19:31:15.498Z,99850.94
2023-01-15T19:33:45.479Z,99842.16
2023-01-15T19:36:16.649Z,99844.72
2023-01-15T19:38:44.815Z,99831.66
2023-01-15T19:41:30.891Z,99818.31
2023-01-15T19:44:19.134Z,99814.94
2023-01-15T19:47:07.483Z,99808.81
2023-01-15T19:49:55.928Z,99815.06
2023-01-15T19:52:41.451Z,99813.75
2023-01-15T19:55:12.053Z,99821.94
2023-01-15T19:57:40.602Z,99810.69
2023-01-15T20:00:17.378Z,99811.88
2023-01-15T20:02:46.515Z,99806.94
2023-01-15T20:05:17.729Z,99813.47
2023-01-15T20:07:46.007Z,99814.72
2023-01-15T20:10:20.469Z,99805.06
2023-01-15T20:13:11.570Z,99804.56
2023-01-15T20:15:42.854Z,99792.22
2023-01-15T20:18:11.639Z,99788.81
2023-01-15T20:20:44.819Z,99791.34
2023-01-15T20:23:13.681Z,99782.59
2023-01-15T20:25:42.383Z,99781.59
2023-01-15T20:28:10.733Z,99782.31
2023-01-15T20:30:38.979Z,99780.94
2023-01-15T20:33:07.796Z,99773.13
2023-01-15T20:35:38.931Z,99762.38
2023-01-15T20:38:10.354Z,99751.75
2023-01-15T20:40:43.924Z,99750.09
2023-01-15T20:43:31.729Z,99733.66
2023-01-15T20:46:09.452Z,99731.41
2023-01-15T20:48:54.957Z,99738.81
2023-01-15T20:51:23.947Z,99720.88
2023-01-15T20:53:56.832Z,99720.41
2023-01-15T20:56:25.461Z,99710.50
2023-01-15T20:59:01.715Z,99711.22
2023-01-15T21:01:30.160Z,99720.72
2023-01-15T21:03:58.909Z,99715.63
2023-01-15T21:06:30.273Z,99706.97
2023-01-15T21:09:00.146Z,99700.47
2023-01-15T21:11:28.689Z,99712.50
2023-01-15T21:13:57.095Z,99717.25
2023-01-15T21:16:25.796Z,99707.47
2023-01-15T21:18:54.483Z,99700.53
2023-01-15T21:21:22.880Z,99698.53
2023-01-15T21:23:57.315Z,99699.41
2023-01-15T21:26:29.053Z,99699.44
2023-01-15T21:28:57.570Z,99690.50
2023-01-15T21:31:27.059Z,99685.66
2023-01-15T21:33:57.195Z,99681.41
2023-01-15T21:36:26.068Z,99678.72
2023-01-15T21:39:02.373Z,99668.84
2023-01-15T21:41:49.472Z,99665.00
2023-01-15T21:44:37.095Z,99667.41
2023-01-15T21:47:09.154Z,99658.75
2023-01-15T21:49:41.771Z,99658.22
2023-01-15T21:52:12.836Z,99651.28
2023-01-15T21:54:41.852Z,99637.81
2023-01-15T21:57:16.561Z,99639.38
2023-01-15T21:59:44.918Z,99628.78
2023-01-15T22:02:17.476Z,99637.84
2023-01-15T22:04:47.361Z,99629.69
2023-01-15T22:07:17.512Z,99615.31
2023-01-15T22:09:45.995Z,99618.88
2023-01-15T22:12:22.722Z,99622.25
2023-01-15T22:14:51.440Z,99620.56
2023-01-15T22:17:30.196Z,99607.53
2023-01-15T22:19:58.613Z,99610.81
2023-01-15T22:22:33.362Z,99613.22
2023-01-15T22:25:05.131Z,99610.53
2023-01-15T22:27:41.105Z,99612.22
2023-01-15T22:30:13.170Z,99604.41
2023-01-15T22:32:41.594Z,99600.59
2023-01-15T22:35:10.812Z,99605.00
2023-01-15T22:37:39.649Z,99593.53
2023-01-15T22:40:15.379Z,99588.28
2023-01-15T22:42:45.503Z,99594.13
2023-01-15T22:45:16.517Z,99592.25
2023-01-15T22:47:45.136Z,99570.31
2023-01-15T22:50:13.725Z,99573.00
2023-01-15T22:52:47.087Z,99569.31
2023-01-15T22:55:17.924Z,99563.38
2023-01-15T22:57:50.272Z,99565.34
2023-01-15T23:00:19.641Z,99569.28
2023-01-15T23:03:05.061Z,99568.56
2023-01-15T23:05:41.271Z,99572.09
2023-01-15T23:08:09.439Z,99566.28
2023-01-15T23:10:37.899Z,99559.50
2023-01-15T23:13:07.499Z,99557.63
2023-01-15T23:15:35.768Z,99555.34
2023-01-15T23:18:03.940Z,99541.47
2023-01-15T23:20:32.321Z,99559.34
2023-01-15T23:23:03.151Z,99543.03
2023-01-15T23:25:31.357Z,99535.78
2023-01-15T23:27:59.598Z,99537.63
2023-01-15T23:30:32.369Z,99529.25
2023-01-15T23:33:00.711Z,99536.19
2023-01-15T23:35:28.919Z,99529.66
2023-01-15T23:37:57.213Z,99537.19
2023-01-15T23:40:25.325Z,99533.75
2023-01-15T23:43:10.770Z,99523.00
2023-01-15T23:45:57.662Z,99515.38
2023-01-15T23:48:25.896Z,99509.13
2023-01-15T23:50:54.106Z,99504.03
2023-01-15T23:53:22.289Z,99508.97
2023-01-15T23:55:50.487Z,99493.28
2023-01-15T23:58:18.627Z,99493.97
